Terminal Aerodrome Forecast
Issued by NWS

Home | Current Version | Previous Version | Text Only | Print | Product List | Glossary On
Versions: 1 2 3 4 5 6 7 8 9 10 11 12 13 14 15 16
127
FTUS45 KVEF 240540
TAFBIH
TAF
KBIH 240540Z 2406/2506 35018G24KT P6SM VCSH SCT050 OVC100
      TEMPO 2406/2409 -RA BKN050 OVC070
     FM241000 34008KT P6SM FEW050 BKN100
     FM241700 34009G16KT P6SM VCSH SCT050 BKN080=

USA.gov is the U.S. government's official web portal to all federal, state and local government web resources and services.